Airfield :
LOGIN :

Register | Disclaimer

   EN    FR    IT 

 










Legend :    VFR   Marginal VFR   IFR   Intensive IFR   Very Intensive IFR
Visi :
Ceiling :
>= 8 km
>= 3000ft
5 to 8 km
1000 to 3000 ft
1500m to 5 km
500 to 1000 ft
800 to 1500m
200 to 500 ft
< 800m
< 200 ft
Symbols :   Thunderstorms  Fog  Heavy snow  Heavy precipitations  Wind > 20 kt
SIGMETs :     Misc.  Thunderstorms  Icing  Turbulence  Mountain Waves  Volcanic Ashes







- Airport Elevation : 12 ft
- IATA code : NCE
- Download approach charts


LFMN - Nice

CURRENT METAR :
  • 250030Z 32005KT 9999 BKN016 18/14 Q1018 NOSIG

EXPIRED METARs :
  • 250000Z 32005KT 9999 BKN016 18/15 Q1018 NOSIG
  • 242330Z 33005KT 9999 BKN014 17/14 Q1018 NOSIG
  • 242300Z 33005KT 9999 SCT014 18/15 Q1018 NOSIG
  • 242230Z 33003KT 9999 FEW066 17/15 Q1019 NOSIG
  • 242200Z 33005KT 9999 FEW066 18/15 Q1018 NOSIG

TAF TAF LFMN
Valid from the 24 at 21:00 until the 26 at 03:00 UTC


242000Z 2421/2603 34010KT 9999 FEW030
TEMPO 2421/2507 09005KT BKN012
BECMG 2507/2509 14008KT
BECMG 2517/2519 34010KT BKN050
PROB40
TEMPO 2522/2603 09010KT RA BKN015
ATIS : +33 4 93 17 21 16
No reported NOTAMs for that airfield.



MET'MAP, your aeronautical weather chart ! - Copyright ORBIFLY December 2007 - Disclaimer

ORBIFLY MET'MAP TEAM :

Programming & Development : Alexandra Zaïnal
Concept & Development : Baudouin d'Aumeries
Co-Development & Prog : Marc-Olivier Méhu
Technical & hardware support : Manuel Goepfert

Contact : metmap@orbifly.com




SOURCES & CREDITS :

   NOAA